Delta Virtual Airport Information Service

Charlotte Douglas International Airport

ICAO: KCLT Country: United States
Latitude: 35.214 Longitude: -80.9431
Latest Arrival : AAL1917 (1) (KORF-KCLT) Latest Departure : DAC8435 (KCLT-KSLC)


WX CaptureLIVE
Data provided by noaa.gov | Fetched at 04:17:42

METAR : KCLT 300852Z 28003KT 10SM FEW250 12/09 A2992 RMK AO2 SLP128 T01170094 51015 $

TAF : KCLT 300817Z 3008/0112 26004KT P6SM SCT250 TEMPO 3009/3013 28004KT FM301700 23005KT P6SM FEW250


Runway Data for KCLT
Data provided by openaviationdata.com

Runway ID Mag Var Hdg Length Elevation Surface ILS Freq ILS Id ILS Slope
5 -7 55° 7501 ft 748 ft Asphalt 110.95 ICLT 3
18L -7 182° 8686 ft 748 ft Asphalt 110.35 IVKQ 3
18R -7 182° 10016 ft 748 ft Concrete 111.3 IPEP 3
23 -7 235° 7501 ft 748 ft Asphalt 109.5 IAPU 3
36L -7 10016 ft 748 ft Concrete 111.7 IDQG 3
36R -7 8686 ft 748 ft Asphalt 108.9 IBQC 3

Charlotte Douglas International Airport, United States
Use only for reference purposes



Not for navigational purposes.